sensor_id;sensor_type;location;lat;lon;timestamp;P1;durP1;ratioP1;P2;durP2;ratioP2
34741;SDS011;20968;42.696;23.360;2022-07-06T00:02:11;9.00;;;6.68;;
34741;SDS011;20968;42.696;23.360;2022-07-06T00:04:37;9.55;;;7.68;;
34741;SDS011;20968;42.696;23.360;2022-07-06T00:07:02;10.30;;;6.55;;
34741;SDS011;20968;42.696;23.360;2022-07-06T00:09:28;8.57;;;6.35;;
34741;SDS011;20968;42.696;23.360;2022-07-06T00:11:53;6.22;;;5.60;;
34741;SDS011;20968;42.696;23.360;2022-07-06T00:14:18;10.75;;;6.95;;
34741;SDS011;20968;42.696;23.360;2022-07-06T00:16:44;8.75;;;7.10;;
34741;SDS011;20968;42.696;23.360;2022-07-06T00:19:09;11.38;;;7.57;;
34741;SDS011;20968;42.696;23.360;2022-07-06T00:21:35;10.57;;;8.20;;
34741;SDS011;20968;42.696;23.360;2022-07-06T00:24:00;12.55;;;7.38;;
34741;SDS011;20968;42.696;23.360;2022-07-06T00:26:26;11.23;;;7.47;;
34741;SDS011;20968;42.696;23.360;2022-07-06T00:28:51;10.30;;;6.63;;
34741;SDS011;20968;42.696;23.360;2022-07-06T00:31:17;9.93;;;5.72;;
34741;SDS011;20968;42.696;23.360;2022-07-06T00:33:42;10.52;;;6.60;;
34741;SDS011;20968;42.696;23.360;2022-07-06T00:36:08;12.27;;;6.90;;
34741;SDS011;20968;42.696;23.360;2022-07-06T00:38:33;13.50;;;7.43;;
34741;SDS011;20968;42.696;23.360;2022-07-06T00:40:58;9.27;;;6.85;;
34741;SDS011;20968;42.696;23.360;2022-07-06T00:43:24;9.80;;;6.72;;
34741;SDS011;20968;42.696;23.360;2022-07-06T00:45:49;10.52;;;7.57;;
34741;SDS011;20968;42.696;23.360;2022-07-06T00:48:15;9.27;;;7.03;;
34741;SDS011;20968;42.696;23.360;2022-07-06T00:50:40;11.75;;;7.60;;
34741;SDS011;20968;42.696;23.360;2022-07-06T00:53:06;13.63;;;8.35;;
34741;SDS011;20968;42.696;23.360;2022-07-06T00:55:37;11.30;;;9.07;;
34741;SDS011;20968;42.696;23.360;2022-07-06T00:58:07;14.10;;;9.18;;
34741;SDS011;20968;42.696;23.360;2022-07-06T01:00:33;12.70;;;8.07;;
34741;SDS011;20968;42.696;23.360;2022-07-06T01:03:00;14.50;;;9.13;;
34741;SDS011;20968;42.696;23.360;2022-07-06T01:05:25;12.00;;;6.60;;
34741;SDS011;20968;42.696;23.360;2022-07-06T01:07:52;10.55;;;8.65;;
34741;SDS011;20968;42.696;23.360;2022-07-06T01:10:18;10.85;;;8.05;;
34741;SDS011;20968;42.696;23.360;2022-07-06T01:12:45;11.15;;;7.18;;
34741;SDS011;20968;42.696;23.360;2022-07-06T01:15:16;11.45;;;8.20;;
34741;SDS011;20968;42.696;23.360;2022-07-06T01:17:43;15.13;;;7.95;;
34741;SDS011;20968;42.696;23.360;2022-07-06T01:20:16;11.02;;;7.38;;
34741;SDS011;20968;42.696;23.360;2022-07-06T01:22:43;10.52;;;7.30;;
34741;SDS011;20968;42.696;23.360;2022-07-06T01:25:10;14.35;;;9.90;;
34741;SDS011;20968;42.696;23.360;2022-07-06T01:27:36;16.50;;;8.98;;
34741;SDS011;20968;42.696;23.360;2022-07-06T01:30:05;18.98;;;9.02;;
34741;SDS011;20968;42.696;23.360;2022-07-06T01:35:08;12.07;;;8.70;;
34741;SDS011;20968;42.696;23.360;2022-07-06T01:37:35;11.45;;;8.52;;
34741;SDS011;20968;42.696;23.360;2022-07-06T01:40:01;13.57;;;10.95;;
34741;SDS011;20968;42.696;23.360;2022-07-06T01:42:27;18.48;;;12.20;;
34741;SDS011;20968;42.696;23.360;2022-07-06T01:44:53;18.02;;;12.43;;
34741;SDS011;20968;42.696;23.360;2022-07-06T01:47:19;13.07;;;10.85;;
34741;SDS011;20968;42.696;23.360;2022-07-06T01:49:44;15.20;;;11.02;;
34741;SDS011;20968;42.696;23.360;2022-07-06T01:52:10;12.10;;;9.57;;
34741;SDS011;20968;42.696;23.360;2022-07-06T01:54:35;13.68;;;9.63;;
34741;SDS011;20968;42.696;23.360;2022-07-06T01:57:01;13.60;;;10.00;;
34741;SDS011;20968;42.696;23.360;2022-07-06T01:59:26;11.35;;;10.15;;
34741;SDS011;20968;42.696;23.360;2022-07-06T02:01:52;14.90;;;10.88;;
34741;SDS011;20968;42.696;23.360;2022-07-06T02:04:17;13.80;;;10.90;;
34741;SDS011;20968;42.696;23.360;2022-07-06T02:06:43;15.30;;;9.48;;
34741;SDS011;20968;42.696;23.360;2022-07-06T02:09:08;12.20;;;9.55;;
34741;SDS011;20968;42.696;23.360;2022-07-06T02:11:33;11.82;;;8.77;;
34741;SDS011;20968;42.696;23.360;2022-07-06T02:13:59;14.68;;;8.52;;
34741;SDS011;20968;42.696;23.360;2022-07-06T02:16:24;11.20;;;9.18;;
34741;SDS011;20968;42.696;23.360;2022-07-06T02:18:50;14.15;;;9.13;;
34741;SDS011;20968;42.696;23.360;2022-07-06T02:21:15;13.80;;;8.25;;
34741;SDS011;20968;42.696;23.360;2022-07-06T02:23:41;11.95;;;8.60;;
34741;SDS011;20968;42.696;23.360;2022-07-06T02:26:06;13.48;;;9.23;;
34741;SDS011;20968;42.696;23.360;2022-07-06T02:28:32;10.88;;;8.80;;
34741;SDS011;20968;42.696;23.360;2022-07-06T02:30:57;16.08;;;9.60;;
34741;SDS011;20968;42.696;23.360;2022-07-06T02:33:23;15.18;;;9.65;;
34741;SDS011;20968;42.696;23.360;2022-07-06T02:35:48;10.43;;;8.77;;
34741;SDS011;20968;42.696;23.360;2022-07-06T02:38:13;9.93;;;8.07;;
34741;SDS011;20968;42.696;23.360;2022-07-06T02:40:39;11.88;;;7.72;;
34741;SDS011;20968;42.696;23.360;2022-07-06T02:43:04;10.75;;;7.80;;
34741;SDS011;20968;42.696;23.360;2022-07-06T02:45:30;13.88;;;7.55;;
34741;SDS011;20968;42.696;23.360;2022-07-06T02:47:56;14.95;;;8.45;;
34741;SDS011;20968;42.696;23.360;2022-07-06T02:50:22;12.07;;;8.52;;
34741;SDS011;20968;42.696;23.360;2022-07-06T02:52:48;11.48;;;8.15;;
34741;SDS011;20968;42.696;23.360;2022-07-06T02:55:13;14.65;;;8.05;;
34741;SDS011;20968;42.696;23.360;2022-07-06T02:57:39;12.30;;;7.18;;
34741;SDS011;20968;42.696;23.360;2022-07-06T03:00:05;16.63;;;8.13;;
34741;SDS011;20968;42.696;23.360;2022-07-06T03:02:31;9.77;;;8.40;;
34741;SDS011;20968;42.696;23.360;2022-07-06T03:04:57;12.07;;;9.05;;
34741;SDS011;20968;42.696;23.360;2022-07-06T03:07:23;14.55;;;9.43;;
34741;SDS011;20968;42.696;23.360;2022-07-06T03:09:49;13.00;;;9.05;;
34741;SDS011;20968;42.696;23.360;2022-07-06T03:12:14;12.95;;;7.93;;
34741;SDS011;20968;42.696;23.360;2022-07-06T03:14:41;10.23;;;8.13;;
34741;SDS011;20968;42.696;23.360;2022-07-06T03:17:06;15.10;;;9.18;;
34741;SDS011;20968;42.696;23.360;2022-07-06T03:19:32;16.90;;;8.20;;
34741;SDS011;20968;42.696;23.360;2022-07-06T03:21:57;16.85;;;8.45;;
34741;SDS011;20968;42.696;23.360;2022-07-06T03:24:23;11.10;;;8.50;;
34741;SDS011;20968;42.696;23.360;2022-07-06T03:26:48;14.75;;;8.75;;
34741;SDS011;20968;42.696;23.360;2022-07-06T03:29:14;14.85;;;8.65;;
34741;SDS011;20968;42.696;23.360;2022-07-06T03:31:39;14.50;;;9.95;;
34741;SDS011;20968;42.696;23.360;2022-07-06T03:34:05;16.10;;;9.85;;
34741;SDS011;20968;42.696;23.360;2022-07-06T03:36:31;12.75;;;9.02;;
34741;SDS011;20968;42.696;23.360;2022-07-06T03:38:56;12.25;;;8.98;;
34741;SDS011;20968;42.696;23.360;2022-07-06T03:41:22;12.15;;;8.90;;
34741;SDS011;20968;42.696;23.360;2022-07-06T03:43:47;12.75;;;9.20;;
34741;SDS011;20968;42.696;23.360;2022-07-06T03:46:12;13.60;;;9.13;;
34741;SDS011;20968;42.696;23.360;2022-07-06T03:48:38;13.07;;;8.85;;
34741;SDS011;20968;42.696;23.360;2022-07-06T03:51:03;12.10;;;8.82;;
34741;SDS011;20968;42.696;23.360;2022-07-06T03:53:29;13.23;;;9.70;;
34741;SDS011;20968;42.696;23.360;2022-07-06T03:55:54;15.30;;;9.50;;
34741;SDS011;20968;42.696;23.360;2022-07-06T03:58:38;12.65;;;8.85;;
34741;SDS011;20968;42.696;23.360;2022-07-06T04:01:04;13.90;;;8.52;;
34741;SDS011;20968;42.696;23.360;2022-07-06T04:03:29;11.90;;;7.65;;
34741;SDS011;20968;42.696;23.360;2022-07-06T04:05:54;12.77;;;7.63;;
34741;SDS011;20968;42.696;23.360;2022-07-06T04:08:20;11.90;;;7.57;;
34741;SDS011;20968;42.696;23.360;2022-07-06T04:10:45;11.57;;;6.57;;
34741;SDS011;20968;42.696;23.360;2022-07-06T04:13:11;13.35;;;6.40;;
34741;SDS011;20968;42.696;23.360;2022-07-06T04:15:36;10.98;;;6.70;;
34741;SDS011;20968;42.696;23.360;2022-07-06T04:18:02;14.85;;;7.78;;
34741;SDS011;20968;42.696;23.360;2022-07-06T04:20:28;15.43;;;6.70;;
34741;SDS011;20968;42.696;23.360;2022-07-06T04:22:53;13.93;;;6.63;;
34741;SDS011;20968;42.696;23.360;2022-07-06T04:25:19;13.85;;;7.35;;
34741;SDS011;20968;42.696;23.360;2022-07-06T04:27:44;19.85;;;8.43;;
34741;SDS011;20968;42.696;23.360;2022-07-06T04:30:10;10.80;;;7.18;;
34741;SDS011;20968;42.696;23.360;2022-07-06T04:32:36;16.08;;;7.13;;
34741;SDS011;20968;42.696;23.360;2022-07-06T04:35:03;19.38;;;8.05;;
34741;SDS011;20968;42.696;23.360;2022-07-06T04:37:29;8.15;;;6.68;;
34741;SDS011;20968;42.696;23.360;2022-07-06T04:39:55;12.68;;;7.15;;
34741;SDS011;20968;42.696;23.360;2022-07-06T04:42:20;15.35;;;6.95;;
34741;SDS011;20968;42.696;23.360;2022-07-06T04:44:46;13.13;;;7.13;;
34741;SDS011;20968;42.696;23.360;2022-07-06T04:47:12;10.63;;;7.50;;
34741;SDS011;20968;42.696;23.360;2022-07-06T04:49:38;15.10;;;8.70;;
34741;SDS011;20968;42.696;23.360;2022-07-06T04:52:03;19.00;;;9.95;;
34741;SDS011;20968;42.696;23.360;2022-07-06T04:54:29;22.45;;;10.13;;
34741;SDS011;20968;42.696;23.360;2022-07-06T04:56:55;12.77;;;9.45;;
34741;SDS011;20968;42.696;23.360;2022-07-06T04:59:20;16.60;;;10.50;;
34741;SDS011;20968;42.696;23.360;2022-07-06T05:01:47;37.17;;;11.13;;
34741;SDS011;20968;42.696;23.360;2022-07-06T05:04:13;16.65;;;10.25;;
34741;SDS011;20968;42.696;23.360;2022-07-06T05:06:38;18.15;;;10.63;;
34741;SDS011;20968;42.696;23.360;2022-07-06T05:09:04;29.00;;;12.30;;
34741;SDS011;20968;42.696;23.360;2022-07-06T05:11:30;14.75;;;10.07;;
34741;SDS011;20968;42.696;23.360;2022-07-06T05:13:56;16.30;;;11.35;;
34741;SDS011;20968;42.696;23.360;2022-07-06T05:16:21;21.83;;;12.18;;
34741;SDS011;20968;42.696;23.360;2022-07-06T05:18:47;14.88;;;11.20;;
34741;SDS011;20968;42.696;23.360;2022-07-06T05:21:13;19.60;;;12.70;;
34741;SDS011;20968;42.696;23.360;2022-07-06T05:23:39;19.30;;;12.57;;
34741;SDS011;20968;42.696;23.360;2022-07-06T05:26:04;20.02;;;13.45;;
34741;SDS011;20968;42.696;23.360;2022-07-06T05:28:30;22.13;;;13.25;;
34741;SDS011;20968;42.696;23.360;2022-07-06T05:30:56;18.13;;;13.30;;
34741;SDS011;20968;42.696;23.360;2022-07-06T05:33:21;21.30;;;13.52;;
34741;SDS011;20968;42.696;23.360;2022-07-06T05:35:47;23.95;;;12.40;;
34741;SDS011;20968;42.696;23.360;2022-07-06T05:38:13;18.77;;;11.98;;
34741;SDS011;20968;42.696;23.360;2022-07-06T05:40:38;18.17;;;11.90;;
34741;SDS011;20968;42.696;23.360;2022-07-06T05:43:04;21.38;;;12.32;;
34741;SDS011;20968;42.696;23.360;2022-07-06T05:45:29;18.52;;;11.38;;
34741;SDS011;20968;42.696;23.360;2022-07-06T05:47:54;17.58;;;9.98;;
34741;SDS011;20968;42.696;23.360;2022-07-06T05:53:04;20.10;;;10.13;;
34741;SDS011;20968;42.696;23.360;2022-07-06T05:55:30;15.35;;;10.60;;
34741;SDS011;20968;42.696;23.360;2022-07-06T05:57:56;22.05;;;11.38;;
34741;SDS011;20968;42.696;23.360;2022-07-06T06:00:22;13.20;;;10.43;;
34741;SDS011;20968;42.696;23.360;2022-07-06T06:02:48;12.55;;;10.35;;
34741;SDS011;20968;42.696;23.360;2022-07-06T06:05:14;25.98;;;12.15;;
34741;SDS011;20968;42.696;23.360;2022-07-06T06:07:40;15.13;;;10.45;;
34741;SDS011;20968;42.696;23.360;2022-07-06T06:10:07;14.65;;;8.45;;
34741;SDS011;20968;42.696;23.360;2022-07-06T06:12:34;12.43;;;8.88;;
34741;SDS011;20968;42.696;23.360;2022-07-06T06:14:59;14.60;;;10.02;;
34741;SDS011;20968;42.696;23.360;2022-07-06T06:17:26;15.00;;;11.48;;
34741;SDS011;20968;42.696;23.360;2022-07-06T06:19:51;16.48;;;10.70;;
34741;SDS011;20968;42.696;23.360;2022-07-06T06:22:18;20.05;;;10.98;;
34741;SDS011;20968;42.696;23.360;2022-07-06T06:24:44;18.40;;;11.45;;
34741;SDS011;20968;42.696;23.360;2022-07-06T06:27:09;15.27;;;10.95;;
34741;SDS011;20968;42.696;23.360;2022-07-06T06:29:35;16.17;;;10.70;;
34741;SDS011;20968;42.696;23.360;2022-07-06T06:32:00;19.33;;;10.18;;
34741;SDS011;20968;42.696;23.360;2022-07-06T06:34:26;12.50;;;9.35;;
34741;SDS011;20968;42.696;23.360;2022-07-06T06:36:51;20.50;;;10.30;;
34741;SDS011;20968;42.696;23.360;2022-07-06T06:39:17;14.20;;;10.13;;
34741;SDS011;20968;42.696;23.360;2022-07-06T06:41:42;19.67;;;10.65;;
34741;SDS011;20968;42.696;23.360;2022-07-06T06:44:08;18.23;;;11.68;;
34741;SDS011;20968;42.696;23.360;2022-07-06T06:46:33;14.90;;;9.73;;
34741;SDS011;20968;42.696;23.360;2022-07-06T06:48:59;17.35;;;10.95;;
34741;SDS011;20968;42.696;23.360;2022-07-06T06:51:24;13.57;;;9.05;;
34741;SDS011;20968;42.696;23.360;2022-07-06T06:53:50;15.98;;;9.52;;
34741;SDS011;20968;42.696;23.360;2022-07-06T06:56:15;14.57;;;10.05;;
34741;SDS011;20968;42.696;23.360;2022-07-06T06:58:41;11.68;;;9.20;;
34741;SDS011;20968;42.696;23.360;2022-07-06T07:01:07;11.80;;;8.98;;
34741;SDS011;20968;42.696;23.360;2022-07-06T07:03:32;14.35;;;10.10;;
34741;SDS011;20968;42.696;23.360;2022-07-06T07:05:58;14.55;;;9.13;;
34741;SDS011;20968;42.696;23.360;2022-07-06T07:08:23;13.05;;;11.25;;
34741;SDS011;20968;42.696;23.360;2022-07-06T07:10:49;12.32;;;10.15;;
34741;SDS011;20968;42.696;23.360;2022-07-06T07:13:14;16.17;;;9.57;;
34741;SDS011;20968;42.696;23.360;2022-07-06T07:15:40;12.80;;;10.48;;
34741;SDS011;20968;42.696;23.360;2022-07-06T07:18:05;18.38;;;9.98;;
34741;SDS011;20968;42.696;23.360;2022-07-06T07:20:31;15.90;;;10.38;;
34741;SDS011;20968;42.696;23.360;2022-07-06T07:22:58;16.55;;;10.18;;
34741;SDS011;20968;42.696;23.360;2022-07-06T07:25:24;15.02;;;10.35;;
34741;SDS011;20968;42.696;23.360;2022-07-06T07:27:50;15.05;;;10.95;;
34741;SDS011;20968;42.696;23.360;2022-07-06T07:30:15;18.40;;;12.43;;
34741;SDS011;20968;42.696;23.360;2022-07-06T07:32:41;13.43;;;11.60;;
34741;SDS011;20968;42.696;23.360;2022-07-06T07:35:06;13.52;;;11.65;;
34741;SDS011;20968;42.696;23.360;2022-07-06T07:37:32;15.82;;;10.80;;
34741;SDS011;20968;42.696;23.360;2022-07-06T07:39:58;12.15;;;9.93;;
34741;SDS011;20968;42.696;23.360;2022-07-06T07:42:24;12.63;;;10.38;;
34741;SDS011;20968;42.696;23.360;2022-07-06T07:44:49;12.93;;;9.98;;
34741;SDS011;20968;42.696;23.360;2022-07-06T07:47:15;37.83;;;10.40;;
34741;SDS011;20968;42.696;23.360;2022-07-06T07:49:40;13.93;;;11.10;;
34741;SDS011;20968;42.696;23.360;2022-07-06T07:52:06;16.02;;;10.38;;
34741;SDS011;20968;42.696;23.360;2022-07-06T07:54:32;12.77;;;11.00;;
34741;SDS011;20968;42.696;23.360;2022-07-06T07:56:57;18.83;;;10.68;;
34741;SDS011;20968;42.696;23.360;2022-07-06T07:59:23;13.30;;;10.20;;
34741;SDS011;20968;42.696;23.360;2022-07-06T08:01:48;10.77;;;9.00;;
34741;SDS011;20968;42.696;23.360;2022-07-06T08:04:14;14.93;;;9.65;;
34741;SDS011;20968;42.696;23.360;2022-07-06T08:06:39;10.63;;;9.32;;
34741;SDS011;20968;42.696;23.360;2022-07-06T08:09:05;14.32;;;10.05;;
34741;SDS011;20968;42.696;23.360;2022-07-06T08:11:33;15.95;;;10.52;;
34741;SDS011;20968;42.696;23.360;2022-07-06T08:13:59;20.10;;;9.13;;
34741;SDS011;20968;42.696;23.360;2022-07-06T08:16:25;15.95;;;10.25;;
34741;SDS011;20968;42.696;23.360;2022-07-06T08:18:50;11.68;;;9.48;;
34741;SDS011;20968;42.696;23.360;2022-07-06T08:21:16;15.40;;;9.57;;
34741;SDS011;20968;42.696;23.360;2022-07-06T08:23:41;17.70;;;9.60;;
34741;SDS011;20968;42.696;23.360;2022-07-06T08:26:07;16.35;;;10.27;;
34741;SDS011;20968;42.696;23.360;2022-07-06T08:28:32;12.77;;;10.00;;
34741;SDS011;20968;42.696;23.360;2022-07-06T08:30:58;13.43;;;9.25;;
34741;SDS011;20968;42.696;23.360;2022-07-06T08:33:23;15.55;;;9.50;;
34741;SDS011;20968;42.696;23.360;2022-07-06T08:35:49;11.35;;;8.85;;
34741;SDS011;20968;42.696;23.360;2022-07-06T08:38:15;9.50;;;8.52;;
34741;SDS011;20968;42.696;23.360;2022-07-06T08:40:41;13.50;;;9.52;;
34741;SDS011;20968;42.696;23.360;2022-07-06T08:43:11;15.07;;;9.73;;
34741;SDS011;20968;42.696;23.360;2022-07-06T08:45:39;13.15;;;9.43;;
34741;SDS011;20968;42.696;23.360;2022-07-06T08:48:05;12.05;;;8.52;;
34741;SDS011;20968;42.696;23.360;2022-07-06T08:50:32;13.63;;;9.90;;
34741;SDS011;20968;42.696;23.360;2022-07-06T08:52:58;12.52;;;9.30;;
34741;SDS011;20968;42.696;23.360;2022-07-06T08:55:24;15.73;;;9.07;;
34741;SDS011;20968;42.696;23.360;2022-07-06T08:57:51;15.00;;;9.63;;
34741;SDS011;20968;42.696;23.360;2022-07-06T09:00:16;12.20;;;8.32;;
34741;SDS011;20968;42.696;23.360;2022-07-06T09:02:42;10.88;;;8.90;;
34741;SDS011;20968;42.696;23.360;2022-07-06T09:05:08;15.60;;;9.50;;
34741;SDS011;20968;42.696;23.360;2022-07-06T09:07:37;12.15;;;9.57;;
34741;SDS011;20968;42.696;23.360;2022-07-06T09:10:05;13.30;;;9.75;;
34741;SDS011;20968;42.696;23.360;2022-07-06T09:12:33;14.35;;;9.32;;
34741;SDS011;20968;42.696;23.360;2022-07-06T09:14:58;11.63;;;9.57;;
34741;SDS011;20968;42.696;23.360;2022-07-06T09:17:25;13.88;;;8.93;;
34741;SDS011;20968;42.696;23.360;2022-07-06T09:19:52;17.55;;;9.63;;
34741;SDS011;20968;42.696;23.360;2022-07-06T09:22:26;17.35;;;11.05;;
34741;SDS011;20968;42.696;23.360;2022-07-06T09:25:08;15.10;;;10.55;;
34741;SDS011;20968;42.696;23.360;2022-07-06T09:27:38;14.98;;;11.18;;
34741;SDS011;20968;42.696;23.360;2022-07-06T09:30:06;12.80;;;10.00;;
34741;SDS011;20968;42.696;23.360;2022-07-06T09:32:38;13.27;;;10.43;;
34741;SDS011;20968;42.696;23.360;2022-07-06T09:35:07;15.88;;;10.90;;
34741;SDS011;20968;42.696;23.360;2022-07-06T09:37:44;14.52;;;10.98;;
34741;SDS011;20968;42.696;23.360;2022-07-06T09:40:19;13.18;;;10.68;;
34741;SDS011;20968;42.696;23.360;2022-07-06T09:42:44;14.50;;;10.10;;
34741;SDS011;20968;42.696;23.360;2022-07-06T09:45:10;16.58;;;11.07;;
34741;SDS011;20968;42.696;23.360;2022-07-06T09:47:36;15.10;;;10.38;;
34741;SDS011;20968;42.696;23.360;2022-07-06T09:50:04;11.48;;;10.02;;
34741;SDS011;20968;42.696;23.360;2022-07-06T09:52:33;18.05;;;11.38;;
34741;SDS011;20968;42.696;23.360;2022-07-06T09:54:59;19.55;;;12.43;;
34741;SDS011;20968;42.696;23.360;2022-07-06T09:57:25;13.85;;;10.63;;
34741;SDS011;20968;42.696;23.360;2022-07-06T09:59:50;16.50;;;12.45;;
34741;SDS011;20968;42.696;23.360;2022-07-06T10:02:17;16.77;;;12.63;;
34741;SDS011;20968;42.696;23.360;2022-07-06T10:04:45;19.02;;;12.63;;
34741;SDS011;20968;42.696;23.360;2022-07-06T10:07:11;16.65;;;12.52;;
34741;SDS011;20968;42.696;23.360;2022-07-06T10:09:38;14.43;;;12.85;;
34741;SDS011;20968;42.696;23.360;2022-07-06T10:12:05;14.55;;;12.10;;
34741;SDS011;20968;42.696;23.360;2022-07-06T10:14:35;14.52;;;10.15;;
34741;SDS011;20968;42.696;23.360;2022-07-06T10:17:02;12.60;;;10.98;;
34741;SDS011;20968;42.696;23.360;2022-07-06T10:19:29;12.82;;;10.57;;
34741;SDS011;20968;42.696;23.360;2022-07-06T10:21:56;13.88;;;11.50;;
34741;SDS011;20968;42.696;23.360;2022-07-06T10:24:25;13.25;;;11.25;;
34741;SDS011;20968;42.696;23.360;2022-07-06T10:26:53;15.55;;;11.45;;
34741;SDS011;20968;42.696;23.360;2022-07-06T10:29:19;15.20;;;12.68;;
34741;SDS011;20968;42.696;23.360;2022-07-06T10:31:46;18.25;;;12.25;;
34741;SDS011;20968;42.696;23.360;2022-07-06T10:34:14;16.17;;;11.95;;
34741;SDS011;20968;42.696;23.360;2022-07-06T10:36:43;17.25;;;10.73;;
34741;SDS011;20968;42.696;23.360;2022-07-06T10:39:13;16.60;;;11.35;;
34741;SDS011;20968;42.696;23.360;2022-07-06T10:41:57;13.15;;;9.82;;
34741;SDS011;20968;42.696;23.360;2022-07-06T10:44:23;14.80;;;10.95;;
34741;SDS011;20968;42.696;23.360;2022-07-06T10:46:51;10.43;;;9.23;;
34741;SDS011;20968;42.696;23.360;2022-07-06T10:49:24;11.55;;;9.98;;
34741;SDS011;20968;42.696;23.360;2022-07-06T10:51:51;15.90;;;11.15;;
34741;SDS011;20968;42.696;23.360;2022-07-06T10:54:17;14.02;;;10.43;;
34741;SDS011;20968;42.696;23.360;2022-07-06T10:56:45;14.98;;;10.25;;
34741;SDS011;20968;42.696;23.360;2022-07-06T11:01:42;14.85;;;11.70;;
34741;SDS011;20968;42.696;23.360;2022-07-06T11:04:48;13.70;;;11.60;;
34741;SDS011;20968;42.696;23.360;2022-07-06T11:07:14;20.00;;;13.02;;
34741;SDS011;20968;42.696;23.360;2022-07-06T11:09:41;19.38;;;12.45;;
34741;SDS011;20968;42.696;23.360;2022-07-06T11:12:19;14.25;;;11.75;;
34741;SDS011;20968;42.696;23.360;2022-07-06T11:14:45;15.75;;;12.55;;
34741;SDS011;20968;42.696;23.360;2022-07-06T11:17:12;13.90;;;12.18;;
34741;SDS011;20968;42.696;23.360;2022-07-06T11:19:38;13.93;;;10.60;;
34741;SDS011;20968;42.696;23.360;2022-07-06T11:22:19;12.30;;;11.02;;
34741;SDS011;20968;42.696;23.360;2022-07-06T11:24:45;16.23;;;11.45;;
34741;SDS011;20968;42.696;23.360;2022-07-06T11:27:12;17.38;;;12.48;;
34741;SDS011;20968;42.696;23.360;2022-07-06T11:29:38;18.48;;;11.65;;
34741;SDS011;20968;42.696;23.360;2022-07-06T11:32:04;13.40;;;12.00;;
34741;SDS011;20968;42.696;23.360;2022-07-06T11:34:34;12.95;;;11.65;;
34741;SDS011;20968;42.696;23.360;2022-07-06T11:37:09;12.55;;;10.43;;
34741;SDS011;20968;42.696;23.360;2022-07-06T11:39:46;11.85;;;10.43;;
34741;SDS011;20968;42.696;23.360;2022-07-06T11:42:16;16.75;;;12.52;;
34741;SDS011;20968;42.696;23.360;2022-07-06T11:44:43;14.55;;;10.70;;
34741;SDS011;20968;42.696;23.360;2022-07-06T11:47:10;10.48;;;9.45;;
34741;SDS011;20968;42.696;23.360;2022-07-06T11:49:37;12.15;;;10.95;;
34741;SDS011;20968;42.696;23.360;2022-07-06T11:52:10;11.65;;;10.48;;
34741;SDS011;20968;42.696;23.360;2022-07-06T11:54:37;12.90;;;11.55;;
34741;SDS011;20968;42.696;23.360;2022-07-06T11:57:03;16.17;;;11.48;;
34741;SDS011;20968;42.696;23.360;2022-07-06T11:59:36;12.10;;;10.85;;
34741;SDS011;20968;42.696;23.360;2022-07-06T12:02:09;12.93;;;11.43;;
34741;SDS011;20968;42.696;23.360;2022-07-06T12:04:40;12.15;;;10.93;;
34741;SDS011;20968;42.696;23.360;2022-07-06T12:07:10;11.27;;;10.05;;
34741;SDS011;20968;42.696;23.360;2022-07-06T12:09:38;14.02;;;11.18;;
34741;SDS011;20968;42.696;23.360;2022-07-06T12:12:05;17.02;;;11.05;;
34741;SDS011;20968;42.696;23.360;2022-07-06T12:14:32;11.52;;;10.27;;
34741;SDS011;20968;42.696;23.360;2022-07-06T12:17:04;11.75;;;10.55;;
34741;SDS011;20968;42.696;23.360;2022-07-06T12:19:31;12.65;;;10.27;;
34741;SDS011;20968;42.696;23.360;2022-07-06T12:21:56;12.02;;;9.10;;
34741;SDS011;20968;42.696;23.360;2022-07-06T12:26:53;12.23;;;9.43;;
34741;SDS011;20968;42.696;23.360;2022-07-06T12:29:20;13.30;;;10.30;;
34741;SDS011;20968;42.696;23.360;2022-07-06T12:34:16;11.65;;;9.95;;
34741;SDS011;20968;42.696;23.360;2022-07-06T12:36:43;16.33;;;8.50;;
34741;SDS011;20968;42.696;23.360;2022-07-06T12:39:11;13.73;;;8.32;;
34741;SDS011;20968;42.696;23.360;2022-07-06T12:41:42;9.38;;;7.70;;
34741;SDS011;20968;42.696;23.360;2022-07-06T12:44:10;12.35;;;8.50;;
34741;SDS011;20968;42.696;23.360;2022-07-06T12:46:37;11.13;;;8.35;;
34741;SDS011;20968;42.696;23.360;2022-07-06T12:49:11;10.45;;;7.60;;
34741;SDS011;20968;42.696;23.360;2022-07-06T12:51:53;9.43;;;8.50;;
34741;SDS011;20968;42.696;23.360;2022-07-06T12:54:29;10.93;;;8.27;;
34741;SDS011;20968;42.696;23.360;2022-07-06T12:56:58;11.00;;;9.30;;
34741;SDS011;20968;42.696;23.360;2022-07-06T12:59:26;10.00;;;8.68;;
34741;SDS011;20968;42.696;23.360;2022-07-06T13:01:53;8.80;;;6.85;;
34741;SDS011;20968;42.696;23.360;2022-07-06T13:04:22;9.07;;;7.55;;
34741;SDS011;20968;42.696;23.360;2022-07-06T13:06:49;7.60;;;6.72;;
34741;SDS011;20968;42.696;23.360;2022-07-06T13:09:14;7.97;;;6.30;;
34741;SDS011;20968;42.696;23.360;2022-07-06T13:11:41;6.78;;;6.07;;
34741;SDS011;20968;42.696;23.360;2022-07-06T13:14:07;7.47;;;6.05;;
34741;SDS011;20968;42.696;23.360;2022-07-06T13:16:34;7.78;;;6.10;;
34741;SDS011;20968;42.696;23.360;2022-07-06T13:19:00;6.47;;;5.88;;
34741;SDS011;20968;42.696;23.360;2022-07-06T13:21:26;7.88;;;6.45;;
34741;SDS011;20968;42.696;23.360;2022-07-06T13:23:51;11.07;;;5.70;;
34741;SDS011;20968;42.696;23.360;2022-07-06T13:26:17;7.05;;;5.22;;
34741;SDS011;20968;42.696;23.360;2022-07-06T13:28:42;5.15;;;4.72;;
34741;SDS011;20968;42.696;23.360;2022-07-06T13:31:08;7.70;;;4.97;;
34741;SDS011;20968;42.696;23.360;2022-07-06T13:33:33;10.38;;;4.90;;
34741;SDS011;20968;42.696;23.360;2022-07-06T13:35:58;6.70;;;4.43;;
34741;SDS011;20968;42.696;23.360;2022-07-06T13:38:26;10.07;;;3.60;;
34741;SDS011;20968;42.696;23.360;2022-07-06T13:40:51;4.25;;;3.85;;
34741;SDS011;20968;42.696;23.360;2022-07-06T13:43:17;4.80;;;3.60;;
34741;SDS011;20968;42.696;23.360;2022-07-06T13:45:43;4.25;;;2.63;;
34741;SDS011;20968;42.696;23.360;2022-07-06T13:48:08;4.63;;;2.63;;
34741;SDS011;20968;42.696;23.360;2022-07-06T13:50:34;4.78;;;2.25;;
34741;SDS011;20968;42.696;23.360;2022-07-06T13:52:59;3.65;;;2.03;;
34741;SDS011;20968;42.696;23.360;2022-07-06T13:55:24;2.42;;;2.28;;
34741;SDS011;20968;42.696;23.360;2022-07-06T13:57:52;6.35;;;2.45;;
34741;SDS011;20968;42.696;23.360;2022-07-06T14:00:18;4.20;;;2.25;;
34741;SDS011;20968;42.696;23.360;2022-07-06T14:02:46;5.10;;;2.40;;
34741;SDS011;20968;42.696;23.360;2022-07-06T14:05:12;7.60;;;2.80;;
34741;SDS011;20968;42.696;23.360;2022-07-06T14:07:37;3.47;;;2.45;;
34741;SDS011;20968;42.696;23.360;2022-07-06T14:10:03;5.65;;;1.98;;
34741;SDS011;20968;42.696;23.360;2022-07-06T14:12:29;3.13;;;2.03;;
34741;SDS011;20968;42.696;23.360;2022-07-06T14:14:55;3.30;;;2.40;;
34741;SDS011;20968;42.696;23.360;2022-07-06T14:17:20;2.03;;;1.88;;
34741;SDS011;20968;42.696;23.360;2022-07-06T14:19:47;1.92;;;1.83;;
34741;SDS011;20968;42.696;23.360;2022-07-06T14:22:13;2.20;;;1.50;;
34741;SDS011;20968;42.696;23.360;2022-07-06T14:24:38;2.00;;;1.80;;
34741;SDS011;20968;42.696;23.360;2022-07-06T14:27:04;2.30;;;1.70;;
34741;SDS011;20968;42.696;23.360;2022-07-06T14:29:29;4.20;;;2.10;;